Time;durP1;ratioP1;P1;durP2;ratioP2;P2;SDS_P1;SDS_P2;PMS_P1;PMS_P2;Temp;Humidity;BMP_temperature;BMP_pressure;BME280_temperature;BME280_humidity;BME280_pressure;Samples;Min_cycle;Max_cycle;Signal;HPM_P1;HPM_P2
2020/12/16 00:01:53;;;;;;;18.67;13.57;;;;;;;;;;5070670;28;20041;-76
2020/12/16 00:04:20;;;;;;;14.60;13.10;;;;;;;;;;5071902;28;20036;-76
2020/12/16 00:07:06;;;;;;;17.33;13.13;;;;;;;;;;5070200;28;20491;-78
2020/12/16 00:09:53;;;;;;;16.27;12.65;;;;;;;;;;5069162;28;20083;-77
2020/12/16 00:12:39;;;;;;;15.90;13.57;;;;;;;;;;5068968;28;20044;-76
2020/12/16 00:15:06;;;;;;;16.00;13.55;;;;;;;;;;5071935;28;20037;-77
2020/12/16 00:17:33;;;;;;;16.75;13.82;;;;;;;;;;5070485;28;20371;-77
2020/12/16 00:20:19;;;;;;;17.60;14.07;;;;;;;;;;5070065;28;20366;-76
2020/12/16 00:22:45;;;;;;;15.50;13.10;;;;;;;;;;5069780;28;20078;-77
2020/12/16 00:25:13;;;;;;;16.70;13.82;;;;;;;;;;5068118;28;20097;-75
2020/12/16 00:27:59;;;;;;;18.95;14.57;;;;;;;;;;5056062;28;20387;-76
2020/12/16 00:30:25;;;;;;;17.33;14.25;;;;;;;;;;5070125;28;20051;-79
2020/12/16 00:32:51;;;;;;;14.65;12.75;;;;;;;;;;5071103;28;20033;-77
2020/12/16 00:35:18;;;;;;;14.98;13.23;;;;;;;;;;5070710;28;20044;-78
2020/12/16 00:38:04;;;;;;;18.33;13.57;;;;;;;;;;5041560;28;20161;-78
2020/12/16 00:40:30;;;;;;;15.32;13.40;;;;;;;;;;5069497;28;20071;-78
2020/12/16 00:43:17;;;;;;;16.48;13.55;;;;;;;;;;5055737;28;20044;-78
2020/12/16 00:45:43;;;;;;;15.02;12.90;;;;;;;;;;5051966;28;20040;-76
2020/12/16 00:48:09;;;;;;;15.63;13.23;;;;;;;;;;5052589;28;20040;-77
2020/12/16 00:50:35;;;;;;;15.60;12.88;;;;;;;;;;5069917;28;20437;-79
2020/12/16 00:53:22;;;;;;;15.63;13.18;;;;;;;;;;5041261;28;20048;-79
2020/12/16 00:56:08;;;;;;;15.63;12.85;;;;;;;;;;5039823;28;20123;-76
2020/12/16 00:58:34;;;;;;;15.27;12.15;;;;;;;;;;5069408;28;20460;-76
2020/12/16 01:01:01;;;;;;;15.73;13.23;;;;;;;;;;5070698;28;20163;-78
2020/12/16 01:03:27;;;;;;;15.32;13.00;;;;;;;;;;5052478;28;20084;-78
2020/12/16 01:05:54;;;;;;;16.00;13.57;;;;;;;;;;5069316;28;20037;-75
2020/12/16 01:08:20;;;;;;;16.38;13.07;;;;;;;;;;5069881;28;20051;-74
2020/12/16 01:10:46;;;;;;;15.52;13.10;;;;;;;;;;5068745;28;20044;-81
2020/12/16 01:13:13;;;;;;;15.23;13.63;;;;;;;;;;5069475;28;20460;-76
2020/12/16 01:15:59;;;;;;;15.75;12.90;;;;;;;;;;5054962;28;20380;-78
2020/12/16 01:18:26;;;;;;;17.73;13.27;;;;;;;;;;5035635;28;20040;-77
2020/12/16 01:20:53;;;;;;;16.02;12.15;;;;;;;;;;5068880;28;20037;-80
2020/12/16 01:23:19;;;;;;;17.52;14.60;;;;;;;;;;5052047;28;20037;-75
2020/12/16 01:26:05;;;;;;;16.63;14.73;;;;;;;;;;5052768;28;20433;-77
2020/12/16 01:28:32;;;;;;;16.13;14.10;;;;;;;;;;5069616;28;20357;-77
2020/12/16 01:31:18;;;;;;;15.68;12.70;;;;;;;;;;5040755;28;20101;-74
2020/12/16 01:34:04;;;;;;;17.98;14.20;;;;;;;;;;5063112;28;20229;-77
2020/12/16 01:36:30;;;;;;;15.25;13.68;;;;;;;;;;5067704;28;20089;-78
2020/12/16 01:38:57;;;;;;;16.15;13.35;;;;;;;;;;5068440;28;20076;-78
2020/12/16 01:41:23;;;;;;;14.43;12.75;;;;;;;;;;5067258;28;20421;-77
2020/12/16 01:43:50;;;;;;;14.30;12.50;;;;;;;;;;5068493;28;20425;-81
2020/12/16 01:46:16;;;;;;;15.88;12.98;;;;;;;;;;5069964;28;20395;-75
2020/12/16 01:48:42;;;;;;;15.57;13.32;;;;;;;;;;5067516;28;20075;-77
2020/12/16 01:51:11;;;;;;;15.27;12.18;;;;;;;;;;5068107;28;20579;-76
2020/12/16 01:53:38;;;;;;;14.45;12.75;;;;;;;;;;5069611;28;20472;-78
2020/12/16 01:56:04;;;;;;;15.15;13.32;;;;;;;;;;5067892;28;20060;-79
2020/12/16 01:58:32;;;;;;;15.82;12.90;;;;;;;;;;5068122;28;20033;-79
2020/12/16 02:00:59;;;;;;;15.30;12.60;;;;;;;;;;5069736;28;20066;-77
2020/12/16 02:03:47;;;;;;;14.77;12.95;;;;;;;;;;5068399;28;20135;-77
2020/12/16 02:06:14;;;;;;;14.80;12.77;;;;;;;;;;5067946;28;20044;-79
2020/12/16 02:09:03;;;;;;;15.13;13.00;;;;;;;;;;5068085;28;20052;-77
2020/12/16 02:11:30;;;;;;;15.95;13.27;;;;;;;;;;5067578;28;20558;-78
2020/12/16 02:14:16;;;;;;;16.10;13.60;;;;;;;;;;5068388;28;20043;-75
2020/12/16 02:16:43;;;;;;;15.45;13.43;;;;;;;;;;5068314;28;20040;-76
2020/12/16 02:19:10;;;;;;;13.85;12.35;;;;;;;;;;5067891;28;20041;-77
2020/12/16 02:21:56;;;;;;;14.30;12.32;;;;;;;;;;5054203;28;20124;-79
2020/12/16 02:24:51;;;;;;;16.80;13.68;;;;;;;;;;5052667;28;20049;-78
2020/12/16 02:27:18;;;;;;;16.67;13.60;;;;;;;;;;5068433;28;20060;-75
2020/12/16 02:30:05;;;;;;;16.63;13.35;;;;;;;;;;5067551;28;20143;-79
2020/12/16 02:32:31;;;;;;;15.98;14.15;;;;;;;;;;5067517;28;20075;-77
2020/12/16 02:35:17;;;;;;;15.48;13.30;;;;;;;;;;5055940;28;20433;-78
2020/12/16 02:37:43;;;;;;;17.48;13.73;;;;;;;;;;5072811;28;20090;-78
2020/12/16 02:40:10;;;;;;;14.10;12.60;;;;;;;;;;5037371;28;20040;-77
2020/12/16 02:42:56;;;;;;;17.63;13.90;;;;;;;;;;5030443;28;20048;-77
2020/12/16 02:45:42;;;;;;;14.95;13.25;;;;;;;;;;5043599;28;20490;-79
2020/12/16 02:48:08;;;;;;;16.30;13.07;;;;;;;;;;5073612;28;20089;-78
2020/12/16 02:50:55;;;;;;;14.52;13.00;;;;;;;;;;5057049;28;20404;-80
2020/12/16 02:53:21;;;;;;;15.25;13.40;;;;;;;;;;5055205;28;20036;-76
2020/12/16 02:55:47;;;;;;;17.52;13.05;;;;;;;;;;5072119;28;20067;-80
2020/12/16 02:58:13;;;;;;;15.02;13.20;;;;;;;;;;5072748;28;20139;-79
2020/12/16 03:00:40;;;;;;;16.33;13.40;;;;;;;;;;5054714;28;20032;-79
2020/12/16 03:03:06;;;;;;;14.73;12.88;;;;;;;;;;5073343;28;20097;-79
2020/12/16 03:05:53;;;;;;;16.20;14.27;;;;;;;;;;5057151;28;20047;-76
2020/12/16 03:08:39;;;;;;;14.57;12.75;;;;;;;;;;5043944;28;20052;-80
2020/12/16 03:11:05;;;;;;;13.75;12.25;;;;;;;;;;5071057;28;20064;-78
2020/12/16 03:13:52;;;;;;;16.90;13.18;;;;;;;;;;5043095;28;20056;-76
2020/12/16 03:16:18;;;;;;;15.52;13.20;;;;;;;;;;5054428;28;20484;-77
2020/12/16 03:18:45;;;;;;;15.77;13.63;;;;;;;;;;5021450;28;20383;-79
2020/12/16 03:21:11;;;;;;;16.55;13.32;;;;;;;;;;5072068;28;20044;-77
2020/12/16 03:23:37;;;;;;;15.40;13.45;;;;;;;;;;5054709;28;20040;-81
2020/12/16 03:26:05;;;;;;;16.88;13.55;;;;;;;;;;5052393;28;20120;-78
2020/12/16 03:28:32;;;;;;;17.80;12.77;;;;;;;;;;5053966;28;20091;-75
2020/12/16 03:30:58;;;;;;;15.88;13.35;;;;;;;;;;5054314;28;20040;-78
2020/12/16 03:33:24;;;;;;;15.98;13.45;;;;;;;;;;5071199;28;20044;-76
2020/12/16 03:36:13;;;;;;;16.00;12.80;;;;;;;;;;5070580;28;20116;-81
2020/12/16 03:38:59;;;;;;;17.05;13.32;;;;;;;;;;5071264;28;20045;-80
2020/12/16 03:41:26;;;;;;;16.55;13.48;;;;;;;;;;5068398;28;20048;-80
2020/12/16 03:43:52;;;;;;;16.15;12.65;;;;;;;;;;5072026;28;20036;-79
2020/12/16 03:46:18;;;;;;;14.38;12.63;;;;;;;;;;5072033;28;20440;-79
2020/12/16 03:48:45;;;;;;;16.92;13.23;;;;;;;;;;5071215;28;20071;-81
2020/12/16 03:51:13;;;;;;;14.93;12.63;;;;;;;;;;5070488;28;20040;-81
2020/12/16 03:53:59;;;;;;;14.30;12.73;;;;;;;;;;5056520;28;20147;-78
2020/12/16 03:56:45;;;;;;;15.80;12.57;;;;;;;;;;5069721;28;20079;-79
2020/12/16 03:59:11;;;;;;;14.20;11.52;;;;;;;;;;5071964;28;20036;-77
2020/12/16 04:01:58;;;;;;;13.32;11.20;;;;;;;;;;5070233;28;20105;-78
2020/12/16 04:04:24;;;;;;;13.10;11.13;;;;;;;;;;5071749;28;20070;-80
2020/12/16 04:07:11;;;;;;;14.93;11.00;;;;;;;;;;5042883;28;20139;-80
2020/12/16 04:09:37;;;;;;;13.00;10.73;;;;;;;;;;5070755;28;20067;-76
2020/12/16 04:12:03;;;;;;;13.40;11.48;;;;;;;;;;5069571;28;20075;-78
2020/12/16 04:14:49;;;;;;;13.13;10.52;;;;;;;;;;5070540;28;20114;-76
2020/12/16 04:17:16;;;;;;;13.55;10.88;;;;;;;;;;5069939;28;20039;-78
2020/12/16 04:19:42;;;;;;;13.98;11.10;;;;;;;;;;5071116;28;20479;-77
2020/12/16 04:22:29;;;;;;;12.82;10.80;;;;;;;;;;5069342;28;20131;-77
2020/12/16 04:24:56;;;;;;;12.88;10.57;;;;;;;;;;5070028;28;20048;-77
2020/12/16 04:27:22;;;;;;;12.60;10.55;;;;;;;;;;5070428;28;20074;-75
2020/12/16 04:29:48;;;;;;;13.73;10.60;;;;;;;;;;5069045;28;20059;-75
2020/12/16 04:32:15;;;;;;;14.48;10.63;;;;;;;;;;5071489;28;20072;-76
2020/12/16 04:34:41;;;;;;;13.07;10.43;;;;;;;;;;5053713;28;20032;-76
2020/12/16 04:37:07;;;;;;;13.25;10.75;;;;;;;;;;5070478;28;20037;-78
2020/12/16 04:39:34;;;;;;;12.77;10.18;;;;;;;;;;5070344;28;20781;-76
2020/12/16 04:42:20;;;;;;;12.77;10.35;;;;;;;;;;5040894;28;20044;-77
2020/12/16 04:44:46;;;;;;;13.60;10.63;;;;;;;;;;5070368;28;20086;-79
2020/12/16 04:47:13;;;;;;;13.45;10.73;;;;;;;;;;5071408;28;20101;-76
2020/12/16 04:49:59;;;;;;;13.35;10.55;;;;;;;;;;5042137;28;20143;-75
2020/12/16 04:52:26;;;;;;;13.10;10.15;;;;;;;;;;5051866;28;20049;-76
2020/12/16 04:54:52;;;;;;;13.07;11.07;;;;;;;;;;5070783;28;20074;-75
2020/12/16 04:57:19;;;;;;;13.40;9.85;;;;;;;;;;5050637;28;20036;-79
2020/12/16 05:00:05;;;;;;;13.80;10.32;;;;;;;;;;5041878;28;20131;-76
2020/12/16 05:02:31;;;;;;;13.93;10.48;;;;;;;;;;5036352;28;20216;-79
2020/12/16 05:05:18;;;;;;;15.18;10.52;;;;;;;;;;5054875;28;20539;-79
2020/12/16 05:07:48;;;;;;;14.45;11.05;;;;;;;;;;5052351;28;20736;-76
2020/12/16 05:10:15;;;;;;;14.50;11.15;;;;;;;;;;5069256;28;20043;-76
2020/12/16 05:12:42;;;;;;;14.05;11.20;;;;;;;;;;5069498;28;20388;-79
2020/12/16 05:15:21;;;;;;;14.35;10.13;;;;;;;;;;5070350;28;20048;-78
2020/12/16 05:18:10;;;;;;;14.98;10.57;;;;;;;;;;5041772;28;20048;-77
2020/12/16 05:20:37;;;;;;;14.70;10.55;;;;;;;;;;5069438;28;20047;-80
2020/12/16 05:23:25;;;;;;;14.02;10.02;;;;;;;;;;5054929;28;20549;-76
2020/12/16 05:26:11;;;;;;;15.63;10.77;;;;;;;;;;5053299;28;20142;-80
2020/12/16 05:28:58;;;;;;;14.23;11.30;;;;;;;;;;5055222;28;20058;-76
2020/12/16 05:31:29;;;;;;;14.57;10.23;;;;;;;;;;5035670;28;20368;-79
2020/12/16 05:33:55;;;;;;;14.25;10.38;;;;;;;;;;5060236;28;20480;-76
2020/12/16 05:36:29;;;;;;;13.75;10.50;;;;;;;;;;5068518;28;20086;-80
2020/12/16 05:39:15;;;;;;;17.08;10.43;;;;;;;;;;5068507;28;20119;-76
2020/12/16 05:41:42;;;;;;;12.85;9.50;;;;;;;;;;5068757;28;20056;-77
2020/12/16 05:44:15;;;;;;;14.25;10.52;;;;;;;;;;5070018;28;20060;-76
2020/12/16 05:46:42;;;;;;;13.05;10.00;;;;;;;;;;5068090;28;20045;-77
2020/12/16 05:49:25;;;;;;;16.42;10.02;;;;;;;;;;5068800;28;20040;-75
2020/12/16 05:51:58;;;;;;;14.40;10.73;;;;;;;;;;5068037;28;20062;-80
2020/12/16 05:54:48;;;;;;;14.60;10.23;;;;;;;;;;5067429;28;20040;-78
2020/12/16 05:57:25;;;;;;;15.70;10.68;;;;;;;;;;5069181;28;20176;-78
2020/12/16 06:00:01;;;;;;;15.68;11.05;;;;;;;;;;5068454;28;20139;-79
2020/12/16 06:02:33;;;;;;;14.13;10.82;;;;;;;;;;5069020;28;20186;-78
2020/12/16 06:04:59;;;;;;;16.15;11.73;;;;;;;;;;5068602;28;20033;-79
2020/12/16 06:07:46;;;;;;;17.27;10.82;;;;;;;;;;5040439;28;20116;-75
2020/12/16 06:10:14;;;;;;;15.05;10.82;;;;;;;;;;5069981;28;20048;-77
2020/12/16 06:13:04;;;;;;;16.40;10.85;;;;;;;;;;5058459;28;20062;-78
2020/12/16 06:15:33;;;;;;;16.23;10.38;;;;;;;;;;5071293;28;20446;-81
2020/12/16 06:18:02;;;;;;;16.75;11.00;;;;;;;;;;5073621;28;20067;-81
2020/12/16 06:20:49;;;;;;;15.98;11.25;;;;;;;;;;5072053;28;20040;-75
2020/12/16 06:23:25;;;;;;;16.30;11.25;;;;;;;;;;5073592;28;20052;-76
2020/12/16 06:25:52;;;;;;;17.00;10.80;;;;;;;;;;5072235;28;20057;-76
2020/12/16 06:28:18;;;;;;;14.15;9.90;;;;;;;;;;5073261;28;20040;-77
2020/12/16 06:30:54;;;;;;;14.45;10.15;;;;;;;;;;5072290;28;20043;-76
2020/12/16 06:33:27;;;;;;;13.80;10.52;;;;;;;;;;5073189;28;20115;-79
2020/12/16 06:36:01;;;;;;;14.48;10.75;;;;;;;;;;5054738;28;20122;-77
2020/12/16 06:38:49;;;;;;;14.15;10.00;;;;;;;;;;5044474;28;20143;-81
2020/12/16 06:41:24;;;;;;;14.68;9.50;;;;;;;;;;5071803;28;20052;-79
2020/12/16 06:44:10;;;;;;;15.23;9.50;;;;;;;;;;5057624;28;20048;-80
2020/12/16 06:46:40;;;;;;;13.07;9.60;;;;;;;;;;5073071;28;20098;-76
2020/12/16 06:49:27;;;;;;;12.98;9.75;;;;;;;;;;5057655;28;20159;-78
2020/12/16 06:52:14;;;;;;;14.35;9.40;;;;;;;;;;5043544;28;20049;-78
2020/12/16 06:54:41;;;;;;;11.95;8.25;;;;;;;;;;5054581;28;20040;-77
2020/12/16 06:57:19;;;;;;;12.15;8.32;;;;;;;;;;5053084;28;20393;-76
2020/12/16 06:59:46;;;;;;;12.27;8.52;;;;;;;;;;5072748;28;20052;-78
2020/12/16 07:02:14;;;;;;;11.25;8.80;;;;;;;;;;5073038;28;20055;-78
2020/12/16 07:04:40;;;;;;;13.38;9.35;;;;;;;;;;5071783;28;20122;-75
2020/12/16 07:07:06;;;;;;;11.73;8.88;;;;;;;;;;5054650;28;20041;-79
2020/12/16 07:09:33;;;;;;;12.98;9.13;;;;;;;;;;5071901;28;20078;-77
2020/12/16 07:12:01;;;;;;;11.38;8.13;;;;;;;;;;5070926;28;20036;-78
2020/12/16 07:14:35;;;;;;;14.40;9.43;;;;;;;;;;5054262;28;20043;-79
2020/12/16 07:17:05;;;;;;;11.55;8.88;;;;;;;;;;5072672;28;20203;-78
2020/12/16 07:19:32;;;;;;;14.63;8.98;;;;;;;;;;5071575;28;20118;-81
2020/12/16 07:22:15;;;;;;;12.13;8.65;;;;;;;;;;5053885;28;20124;-80
2020/12/16 07:24:46;;;;;;;13.25;8.98;;;;;;;;;;5053420;28;20123;-78
2020/12/16 07:27:14;;;;;;;12.52;9.02;;;;;;;;;;5070838;28;20052;-78
2020/12/16 07:29:52;;;;;;;14.02;8.70;;;;;;;;;;5071574;28;20040;-76
2020/12/16 07:32:20;;;;;;;15.82;9.30;;;;;;;;;;5053637;28;20119;-79
2020/12/16 07:35:07;;;;;;;14.07;9.10;;;;;;;;;;5036993;28;20397;-76
2020/12/16 07:37:33;;;;;;;14.23;9.30;;;;;;;;;;5067122;28;20033;-76
2020/12/16 07:40:21;;;;;;;13.25;8.90;;;;;;;;;;5034466;28;20052;-75
2020/12/16 07:43:09;;;;;;;14.43;9.73;;;;;;;;;;5064531;28;20049;-75
2020/12/16 07:46:03;;;;;;;13.98;8.32;;;;;;;;;;5063940;28;20083;-77
2020/12/16 07:48:49;;;;;;;14.25;9.10;;;;;;;;;;5036675;28;20504;-80
2020/12/16 07:51:35;;;;;;;13.43;8.05;;;;;;;;;;5035979;28;20523;-77
2020/12/16 07:54:02;;;;;;;12.57;8.50;;;;;;;;;;5032887;28;20457;-80
2020/12/16 07:56:49;;;;;;;13.73;8.47;;;;;;;;;;5035143;28;20476;-75
2020/12/16 07:59:36;;;;;;;12.95;8.23;;;;;;;;;;5036192;28;20276;-77
2020/12/16 08:02:23;;;;;;;14.20;7.57;;;;;;;;;;5036205;28;20090;-78
2020/12/16 08:05:14;;;;;;;11.10;7.05;;;;;;;;;;5049874;28;20353;-77
2020/12/16 08:08:02;;;;;;;12.30;7.28;;;;;;;;;;5035760;28;20049;-76
2020/12/16 08:10:29;;;;;;;11.00;7.10;;;;;;;;;;5070399;28;20414;-76
2020/12/16 08:13:20;;;;;;;11.70;7.75;;;;;;;;;;5049504;28;20052;-76
2020/12/16 08:15:47;;;;;;;10.57;7.00;;;;;;;;;;5070514;28;20043;-77
2020/12/16 08:18:15;;;;;;;12.55;7.90;;;;;;;;;;5073801;28;20388;-79
2020/12/16 08:20:42;;;;;;;13.15;7.18;;;;;;;;;;5085689;28;20033;-77
2020/12/16 08:23:11;;;;;;;13.55;7.07;;;;;;;;;;5066466;28;20032;-81
2020/12/16 08:25:38;;;;;;;12.60;7.72;;;;;;;;;;5031131;28;20036;-78
2020/12/16 08:28:05;;;;;;;14.75;7.53;;;;;;;;;;5060623;28;20131;-74
2020/12/16 08:30:32;;;;;;;16.48;8.20;;;;;;;;;;5066340;28;20049;-74
2020/12/16 08:33:01;;;;;;;16.23;8.30;;;;;;;;;;5044352;28;20162;-74
2020/12/16 08:35:30;;;;;;;15.57;8.25;;;;;;;;;;5048718;28;20780;-73
2020/12/16 08:37:57;;;;;;;15.02;8.68;;;;;;;;;;5059339;28;20064;-74
2020/12/16 08:40:23;;;;;;;15.57;7.00;;;;;;;;;;5051401;28;20033;-74
2020/12/16 08:42:50;;;;;;;14.93;7.72;;;;;;;;;;5056735;28;20481;-74
2020/12/16 08:45:36;;;;;;;13.00;7.75;;;;;;;;;;5050004;28;20131;-74
2020/12/16 08:48:03;;;;;;;17.27;8.27;;;;;;;;;;5080428;28;20375;-73
2020/12/16 08:50:59;;;;;;;10.88;7.53;;;;;;;;;;5043622;28;20091;-73
2020/12/16 08:53:25;;;;;;;14.05;7.43;;;;;;;;;;5083569;28;20112;-73
2020/12/16 08:55:51;;;;;;;10.57;7.15;;;;;;;;;;5049267;28;20120;-71
2020/12/16 08:58:18;;;;;;;13.52;7.78;;;;;;;;;;5064918;28;20063;-74
2020/12/16 09:00:44;;;;;;;14.23;6.95;;;;;;;;;;5070568;28;20115;-76
2020/12/16 09:03:13;;;;;;;15.15;7.47;;;;;;;;;;5063503;28;20040;-73
2020/12/16 09:05:40;;;;;;;13.32;7.45;;;;;;;;;;5069575;28;20048;-73
2020/12/16 09:08:09;;;;;;;18.50;6.63;;;;;;;;;;5070432;28;20425;-75
2020/12/16 09:10:58;;;;;;;13.68;6.30;;;;;;;;;;5052934;28;20151;-74
2020/12/16 09:13:30;;;;;;;11.27;6.25;;;;;;;;;;5068383;28;20159;-75
2020/12/16 09:16:21;;;;;;;13.73;6.80;;;;;;;;;;5051179;28;20040;-76
2020/12/16 09:18:48;;;;;;;15.07;7.72;;;;;;;;;;5051813;28;20468;-74
2020/12/16 09:21:17;;;;;;;12.38;6.38;;;;;;;;;;5055449;28;20048;-76
2020/12/16 09:23:44;;;;;;;10.77;6.47;;;;;;;;;;5065607;28;20552;-74
2020/12/16 09:26:10;;;;;;;11.98;6.55;;;;;;;;;;5043996;28;20043;-75
2020/12/16 09:28:38;;;;;;;14.07;6.82;;;;;;;;;;5065070;28;20105;-73
2020/12/16 09:31:14;;;;;;;10.80;6.90;;;;;;;;;;5045338;28;20128;-76
2020/12/16 09:33:41;;;;;;;;;;;;;;;;;;5064721;28;20625;-75
2020/12/16 09:36:27;;;;;;;14.85;6.40;;;;;;;;;;5058997;28;19920;-73
2020/12/16 09:38:54;;;;;;;12.38;6.00;;;;;;;;;;5069437;28;20503;-72
2020/12/16 09:41:51;;;;;;;10.20;5.75;;;;;;;;;;5043447;28;20106;-74
2020/12/16 09:44:24;;;;;;;15.50;6.18;;;;;;;;;;5069729;28;20055;-74
2020/12/16 09:46:50;;;;;;;9.15;5.75;;;;;;;;;;5076117;28;20401;-74
2020/12/16 09:49:19;;;;;;;10.98;6.20;;;;;;;;;;5068335;28;20044;-75
2020/12/16 09:51:45;;;;;;;10.38;6.10;;;;;;;;;;5066243;28;20037;-75
2020/12/16 09:54:26;;;;;;;13.57;6.63;;;;;;;;;;5050322;28;20036;-73
2020/12/16 09:56:52;;;;;;;12.88;6.95;;;;;;;;;;5068204;28;20032;-73
2020/12/16 09:59:39;;;;;;;14.30;7.40;;;;;;;;;;5042108;28;20559;-75
2020/12/16 10:02:05;;;;;;;12.48;6.78;;;;;;;;;;5068558;28;20554;-72
2020/12/16 10:04:51;;;;;;;9.75;6.20;;;;;;;;;;5035959;28;20135;-76
2020/12/16 10:07:38;;;;;;;8.95;5.75;;;;;;;;;;5044780;28;20048;-74
2020/12/16 10:10:05;;;;;;;9.57;6.68;;;;;;;;;;5050709;28;20238;-76
2020/12/16 10:12:32;;;;;;;11.35;6.57;;;;;;;;;;5050892;28;20490;-71
2020/12/16 10:14:59;;;;;;;12.57;6.25;;;;;;;;;;5051149;28;20360;-72
2020/12/16 10:17:45;;;;;;;12.38;6.65;;;;;;;;;;5054267;28;20139;-75
2020/12/16 10:20:11;;;;;;;8.15;5.78;;;;;;;;;;5069673;28;20161;-74
2020/12/16 10:22:38;;;;;;;12.45;6.40;;;;;;;;;;5069016;28;20110;-77
2020/12/16 10:25:05;;;;;;;7.57;5.15;;;;;;;;;;5050818;28;20863;-75
2020/12/16 10:27:32;;;;;;;16.70;6.30;;;;;;;;;;5050824;28;20083;-71
2020/12/16 10:29:59;;;;;;;9.85;5.80;;;;;;;;;;5050862;28;20121;-72
2020/12/16 10:32:45;;;;;;;10.32;5.63;;;;;;;;;;5054630;28;20043;-74
2020/12/16 10:35:32;;;;;;;8.13;5.38;;;;;;;;;;5053097;28;20504;-74
2020/12/16 10:38:18;;;;;;;10.00;5.50;;;;;;;;;;5040810;28;20079;-77
2020/12/16 10:40:44;;;;;;;9.48;6.25;;;;;;;;;;5067765;28;20052;-76
2020/12/16 10:43:11;;;;;;;9.02;5.50;;;;;;;;;;5069232;28;20043;-77
2020/12/16 10:45:37;;;;;;;9.25;5.68;;;;;;;;;;5069758;28;20090;-74
2020/12/16 10:48:05;;;;;;;8.98;5.70;;;;;;;;;;5051669;28;20040;-76
2020/12/16 10:50:32;;;;;;;8.57;5.47;;;;;;;;;;5050743;28;20044;-77
2020/12/16 10:53:18;;;;;;;7.72;5.28;;;;;;;;;;5040468;28;20044;-77
2020/12/16 10:55:45;;;;;;;9.30;4.90;;;;;;;;;;5050531;28;20408;-77
2020/12/16 10:58:31;;;;;;;10.70;5.80;;;;;;;;;;5057703;28;20047;-73
2020/12/16 11:00:57;;;;;;;9.93;5.40;;;;;;;;;;5055378;28;20124;-76
2020/12/16 11:03:24;;;;;;;8.43;5.82;;;;;;;;;;5053882;28;20036;-78
2020/12/16 11:05:50;;;;;;;8.48;5.97;;;;;;;;;;5054805;28;20048;-77
2020/12/16 11:08:16;;;;;;;8.07;5.60;;;;;;;;;;5072567;28;20047;-76
2020/12/16 11:10:49;;;;;;;8.77;5.53;;;;;;;;;;5052615;28;20037;-75
2020/12/16 11:13:15;;;;;;;8.73;5.28;;;;;;;;;;5072931;28;20437;-76
2020/12/16 11:15:42;;;;;;;8.82;5.60;;;;;;;;;;5072826;28;20040;-77
2020/12/16 11:18:28;;;;;;;9.63;5.50;;;;;;;;;;5056952;28;20041;-77
2020/12/16 11:21:15;;;;;;;7.68;5.20;;;;;;;;;;5043729;28;20132;-73
2020/12/16 11:24:01;;;;;;;6.70;4.82;;;;;;;;;;5043347;28;20040;-77
2020/12/16 11:26:27;;;;;;;7.63;5.00;;;;;;;;;;5071047;28;20036;-77
2020/12/16 11:28:54;;;;;;;8.63;5.63;;;;;;;;;;5072524;28;20493;-73
2020/12/16 11:31:40;;;;;;;8.80;5.45;;;;;;;;;;5056457;28;20044;-73
2020/12/16 11:34:08;;;;;;;8.75;4.90;;;;;;;;;;5054627;28;20388;-77
2020/12/16 11:36:36;;;;;;;8.48;5.40;;;;;;;;;;5072046;28;20083;-76
2020/12/16 11:39:24;;;;;;;8.27;5.78;;;;;;;;;;5069577;28;20079;-72
2020/12/16 11:42:10;;;;;;;7.85;5.35;;;;;;;;;;5070110;28;20040;-75
2020/12/16 11:44:57;;;;;;;7.72;5.15;;;;;;;;;;5057401;28;20470;-74
2020/12/16 11:47:23;;;;;;;9.85;4.97;;;;;;;;;;5071525;28;20040;-74
2020/12/16 11:50:10;;;;;;;8.27;6.13;;;;;;;;;;5070806;28;20528;-76
2020/12/16 11:52:36;;;;;;;8.07;5.18;;;;;;;;;;5070989;28;20036;-74
2020/12/16 11:55:23;;;;;;;8.07;5.43;;;;;;;;;;5069672;28;20045;-72
2020/12/16 11:58:09;;;;;;;8.90;5.25;;;;;;;;;;5057146;28;20064;-78
2020/12/16 12:00:35;;;;;;;8.75;5.75;;;;;;;;;;5071386;28;20387;-74
2020/12/16 12:03:01;;;;;;;9.30;5.57;;;;;;;;;;5072354;28;20357;-74
2020/12/16 12:05:48;;;;;;;7.78;5.88;;;;;;;;;;5056674;28;20084;-75
2020/12/16 12:08:14;;;;;;;10.18;5.53;;;;;;;;;;5070320;28;20089;-75
2020/12/16 12:10:40;;;;;;;8.23;5.88;;;;;;;;;;5069946;28;20045;-76
2020/12/16 12:13:07;;;;;;;7.93;5.50;;;;;;;;;;5071918;28;20041;-77
2020/12/16 12:15:33;;;;;;;9.02;5.75;;;;;;;;;;5071249;28;20048;-77
2020/12/16 12:18:20;;;;;;;8.32;6.10;;;;;;;;;;5070226;28;20495;-73
2020/12/16 12:21:07;;;;;;;9.65;6.72;;;;;;;;;;5069212;28;20131;-74
2020/12/16 12:23:33;;;;;;;9.73;6.30;;;;;;;;;;5070178;28;20081;-78
2020/12/16 12:26:00;;;;;;;9.35;6.30;;;;;;;;;;5070159;28;20086;-77
2020/12/16 12:28:26;;;;;;;9.68;6.32;;;;;;;;;;5085827;28;20062;-75
2020/12/16 12:30:53;;;;;;;9.23;5.68;;;;;;;;;;5071512;28;20040;-77
2020/12/16 12:33:19;;;;;;;9.02;5.88;;;;;;;;;;5071719;28;20094;-73
2020/12/16 12:36:20;;;;;;;9.43;6.85;;;;;;;;;;5024769;28;20072;-76
2020/12/16 12:39:07;;;;;;;9.48;6.13;;;;;;;;;;5036383;28;20325;-76
2020/12/16 12:41:53;;;;;;;9.52;6.88;;;;;;;;;;5048248;28;20102;-77
2020/12/16 12:44:39;;;;;;;8.82;6.45;;;;;;;;;;5049688;28;20044;-74
2020/12/16 12:47:05;;;;;;;8.98;6.03;;;;;;;;;;5051611;28;20045;-79
2020/12/16 12:49:52;;;;;;;9.13;6.07;;;;;;;;;;5035500;28;20143;-77
2020/12/16 12:52:38;;;;;;;8.68;6.20;;;;;;;;;;5035632;28;20044;-75
2020/12/16 12:55:24;;;;;;;8.77;6.15;;;;;;;;;;5033727;28;20044;-75
2020/12/16 12:58:11;;;;;;;9.75;6.88;;;;;;;;;;5035826;28;20087;-75
2020/12/16 13:00:38;;;;;;;9.60;6.47;;;;;;;;;;5050522;28;20481;-74
2020/12/16 13:03:04;;;;;;;9.93;7.07;;;;;;;;;;5050227;28;20051;-75
2020/12/16 13:05:31;;;;;;;9.10;6.75;;;;;;;;;;5065680;28;20117;-76
2020/12/16 13:07:57;;;;;;;9.00;6.45;;;;;;;;;;5051171;28;20032;-75
2020/12/16 13:10:23;;;;;;;8.85;6.57;;;;;;;;;;5063652;28;20092;-77
2020/12/16 13:13:10;;;;;;;8.27;6.60;;;;;;;;;;5035675;28;20094;-76
2020/12/16 13:15:56;;;;;;;9.63;6.40;;;;;;;;;;5049669;28;20037;-76
2020/12/16 13:18:23;;;;;;;9.85;7.05;;;;;;;;;;5049568;28;20051;-76
2020/12/16 13:21:12;;;;;;;11.30;6.95;;;;;;;;;;5048704;28;20080;-74
2020/12/16 13:23:39;;;;;;;10.88;6.93;;;;;;;;;;5049803;28;20395;-77
2020/12/16 13:26:25;;;;;;;9.98;6.80;;;;;;;;;;5046957;28;20105;-79
2020/12/16 13:28:51;;;;;;;10.13;7.32;;;;;;;;;;5050323;28;20098;-74
2020/12/16 13:31:38;;;;;;;9.20;7.30;;;;;;;;;;5034272;28;20471;-74
2020/12/16 13:34:04;;;;;;;9.48;7.10;;;;;;;;;;5052160;28;20041;-76
2020/12/16 13:36:51;;;;;;;9.77;7.25;;;;;;;;;;5068750;28;20553;-74
2020/12/16 13:39:18;;;;;;;11.05;7.50;;;;;;;;;;5068825;28;20060;-76
2020/12/16 13:41:48;;;;;;;9.23;7.05;;;;;;;;;;5067462;28;20051;-74
2020/12/16 13:44:14;;;;;;;10.95;7.97;;;;;;;;;;5070213;28;20040;-73
2020/12/16 13:46:41;;;;;;;9.63;6.90;;;;;;;;;;5084679;28;20040;-74
2020/12/16 13:49:07;;;;;;;9.65;7.25;;;;;;;;;;5070024;28;20040;-77
2020/12/16 13:51:33;;;;;;;10.32;7.28;;;;;;;;;;5068060;28;20123;-73
2020/12/16 13:54:00;;;;;;;10.50;7.40;;;;;;;;;;5068089;28;20044;-75
2020/12/16 13:56:46;;;;;;;10.18;7.03;;;;;;;;;;5067658;28;20041;-72
2020/12/16 13:59:12;;;;;;;8.98;7.03;;;;;;;;;;5068031;28;20036;-75
2020/12/16 14:01:59;;;;;;;11.38;7.93;;;;;;;;;;5069104;28;20094;-76
2020/12/16 14:04:45;;;;;;;12.02;7.95;;;;;;;;;;5068873;28;20052;-75
2020/12/16 14:07:11;;;;;;;9.95;7.43;;;;;;;;;;5068302;28;20048;-78
2020/12/16 14:09:38;;;;;;;10.18;7.45;;;;;;;;;;5084473;28;20086;-73
2020/12/16 14:12:04;;;;;;;9.40;7.72;;;;;;;;;;5067688;28;20757;-76
2020/12/16 14:14:31;;;;;;;9.75;7.55;;;;;;;;;;5069184;28;20045;-76
2020/12/16 14:16:59;;;;;;;8.95;7.38;;;;;;;;;;5070105;28;20056;-78
2020/12/16 14:19:27;;;;;;;9.80;7.78;;;;;;;;;;5069406;28;20049;-73
2020/12/16 14:22:14;;;;;;;;;;;;;;;;;;5054829;28;20411;-78
2020/12/16 14:24:40;;;;;;;;;;;;;;;;;;5069421;28;20280;-75
2020/12/16 14:27:06;;;;;;;10.80;7.83;;;;;;;;;;5068030;28;19974;-75
2020/12/16 14:29:32;;;;;;;10.00;7.82;;;;;;;;;;5084946;28;20178;-76
2020/12/16 14:31:59;;;;;;;11.50;8.25;;;;;;;;;;5070982;28;20044;-77
2020/12/16 14:34:25;;;;;;;11.30;9.02;;;;;;;;;;5072744;28;20044;-77
2020/12/16 14:37:15;;;;;;;11.23;8.13;;;;;;;;;;5058404;28;20045;-75
2020/12/16 14:40:02;;;;;;;9.60;7.95;;;;;;;;;;5057579;28;20044;-75
2020/12/16 14:42:48;;;;;;;10.73;8.05;;;;;;;;;;5057579;28;20048;-73
2020/12/16 14:45:35;;;;;;;9.55;7.53;;;;;;;;;;5057798;28;20502;-76
2020/12/16 14:48:22;;;;;;;10.63;7.97;;;;;;;;;;5057373;28;20143;-78
2020/12/16 14:51:08;;;;;;;11.00;8.05;;;;;;;;;;5057896;28;20086;-76
2020/12/16 14:53:35;;;;;;;10.50;8.13;;;;;;;;;;5073167;28;20059;-72
2020/12/16 14:56:21;;;;;;;9.07;7.57;;;;;;;;;;5041924;28;20060;-75
2020/12/16 14:59:08;;;;;;;11.65;8.45;;;;;;;;;;5057955;28;20510;-76
2020/12/16 15:01:34;;;;;;;9.82;8.32;;;;;;;;;;5054552;28;20377;-73
2020/12/16 15:04:00;;;;;;;10.15;8.35;;;;;;;;;;5071932;28;20063;-77
2020/12/16 15:06:47;;;;;;;10.80;8.18;;;;;;;;;;5057890;28;20063;-78
2020/12/16 15:09:13;;;;;;;9.73;7.88;;;;;;;;;;5053980;28;20048;-74